createdAt,value
2019-03-06T00:01:23.226Z,3.90
2019-03-06T00:03:52.860Z,3.52
2019-03-06T00:06:22.739Z,3.52
2019-03-06T00:08:51.890Z,3.92
2019-03-06T00:11:20.841Z,4.40
2019-03-06T00:13:49.866Z,4.67
2019-03-06T00:16:19.432Z,4.90
2019-03-06T00:18:48.638Z,5.15
2019-03-06T00:21:17.733Z,6.62
2019-03-06T00:23:46.695Z,6.47
2019-03-06T00:26:15.621Z,6.70
2019-03-06T00:28:44.716Z,6.25
2019-03-06T00:31:13.644Z,6.62
2019-03-06T00:33:43.667Z,7.40
2019-03-06T00:36:16.876Z,7.10
2019-03-06T00:38:46.121Z,6.95
2019-03-06T00:41:20.180Z,7.22
2019-03-06T00:43:49.119Z,7.00
2019-03-06T00:46:19.500Z,8.40
2019-03-06T00:48:48.608Z,7.08
2019-03-06T00:51:18.151Z,7.08
2019-03-06T00:53:47.385Z,7.03
2019-03-06T00:56:16.599Z,8.03
2019-03-06T00:58:45.620Z,7.70
2019-03-06T01:01:15.693Z,7.85
2019-03-06T01:03:45.052Z,7.33
2019-03-06T01:06:14.098Z,7.10
2019-03-06T01:08:43.292Z,7.28
2019-03-06T01:11:12.419Z,7.30
2019-03-06T01:13:41.555Z,6.92
2019-03-06T01:16:10.527Z,6.83
2019-03-06T01:18:39.710Z,6.83
2019-03-06T01:21:08.863Z,15.18
2019-03-06T01:23:38.062Z,16.17
2019-03-06T01:26:07.839Z,15.45
2019-03-06T01:28:37.807Z,16.80
2019-03-06T01:47:51.171Z,15.70
2019-03-06T01:50:20.136Z,15.53
2019-03-06T01:52:48.936Z,15.25
2019-03-06T01:55:18.611Z,13.20
2019-03-06T01:57:47.418Z,14.87
2019-03-06T02:00:18.451Z,12.50
2019-03-06T02:02:47.413Z,15.13
2019-03-06T02:05:16.839Z,14.98
2019-03-06T02:07:45.695Z,15.32
2019-03-06T02:10:14.912Z,15.63
2019-03-06T02:12:44.635Z,14.83
2019-03-06T02:15:14.727Z,14.25
2019-03-06T02:17:43.727Z,13.20
2019-03-06T02:20:14.166Z,14.47
2019-03-06T02:22:43.515Z,14.15
2019-03-06T02:25:12.963Z,14.95
2019-03-06T02:27:42.326Z,16.02
2019-03-06T02:30:13.969Z,19.07
2019-03-06T02:32:43.502Z,21.50
2019-03-06T02:35:12.747Z,19.35
2019-03-06T02:37:41.816Z,20.50
2019-03-06T02:40:11.580Z,19.82
2019-03-06T02:42:40.661Z,19.70
2019-03-06T02:45:10.943Z,18.40
2019-03-06T02:47:39.901Z,17.70
2019-03-06T02:50:10.353Z,22.62
2019-03-06T02:52:40.480Z,20.80
2019-03-06T02:55:10.300Z,17.90
2019-03-06T02:57:40.181Z,17.32
2019-03-06T03:01:15.549Z,16.12
2019-03-06T03:03:50.467Z,19.23
2019-03-06T03:06:23.549Z,17.10
2019-03-06T03:08:53.231Z,18.20
2019-03-06T03:11:22.319Z,16.12
2019-03-06T03:13:51.593Z,16.30
2019-03-06T03:16:20.612Z,16.85
2019-03-06T03:18:49.458Z,15.55
2019-03-06T03:21:18.808Z,15.53
2019-03-06T03:23:47.736Z,15.70
2019-03-06T03:26:16.628Z,15.70
2019-03-06T03:28:46.003Z,15.13
2019-03-06T03:31:15.137Z,15.48
2019-03-06T03:33:44.129Z,14.85
2019-03-06T03:36:13.185Z,16.30
2019-03-06T03:38:42.268Z,17.77
2019-03-06T03:41:11.108Z,17.27
2019-03-06T03:43:40.186Z,17.05
2019-03-06T03:46:09.265Z,17.60
2019-03-06T03:48:38.334Z,16.65
2019-03-06T03:51:07.496Z,16.95
2019-03-06T03:53:36.787Z,16.02
2019-03-06T03:56:05.816Z,16.57
2019-03-06T03:58:34.884Z,16.42
2019-03-06T04:17:50.124Z,21.07
2019-03-06T04:20:19.413Z,16.40
2019-03-06T04:22:48.367Z,40.30
2019-03-06T04:25:17.368Z,48.90
2019-03-06T04:27:46.650Z,39.23
2019-03-06T04:30:15.615Z,41.30
2019-03-06T04:32:45.324Z,30.70
2019-03-06T04:35:14.504Z,34.92
2019-03-06T04:37:43.578Z,26.27
2019-03-06T04:40:13.154Z,31.65
2019-03-06T04:42:42.095Z,22.70
2019-03-06T04:45:11.265Z,20.52
2019-03-06T04:47:40.936Z,20.27
2019-03-06T04:50:10.368Z,20.50
2019-03-06T04:52:40.083Z,23.10
2019-03-06T04:55:09.387Z,19.42
2019-03-06T04:57:39.619Z,17.77
2019-03-06T05:00:10.419Z,18.27
2019-03-06T05:02:39.787Z,18.90
2019-03-06T05:05:09.046Z,20.12
2019-03-06T05:07:38.202Z,21.23
2019-03-06T05:10:07.667Z,25.30
2019-03-06T05:12:36.829Z,24.87
2019-03-06T05:15:06.623Z,30.70
2019-03-06T05:17:41.040Z,33.48
2019-03-06T05:20:10.469Z,36.95
2019-03-06T05:22:39.755Z,37.13
2019-03-06T05:25:09.436Z,41.08
2019-03-06T05:27:38.285Z,51.83
2019-03-06T05:30:07.551Z,54.93
2019-03-06T05:32:37.872Z,49.93
2019-03-06T05:35:27.253Z,46.53
2019-03-06T05:38:10.228Z,47.17
2019-03-06T05:40:39.395Z,47.30
2019-03-06T05:43:08.361Z,54.35
2019-03-06T05:45:37.604Z,40.08
2019-03-06T05:48:06.770Z,36.60
2019-03-06T05:50:36.273Z,35.83
2019-03-06T05:53:05.491Z,36.30
2019-03-06T05:55:34.656Z,34.65
2019-03-06T05:58:04.869Z,34.25
2019-03-06T06:00:34.512Z,35.28
2019-03-06T06:03:03.695Z,31.15
2019-03-06T06:05:33.400Z,27.42
2019-03-06T06:08:02.526Z,24.15
2019-03-06T06:10:31.714Z,23.60
2019-03-06T06:13:00.583Z,24.27
2019-03-06T06:15:29.635Z,24.20
2019-03-06T06:17:58.714Z,23.73
2019-03-06T06:20:27.707Z,20.90
2019-03-06T06:23:04.015Z,18.55
2019-03-06T06:25:34.317Z,19.00
2019-03-06T06:28:03.915Z,20.62
2019-03-06T06:30:33.143Z,20.15
2019-03-06T06:33:02.004Z,18.55
2019-03-06T06:35:31.569Z,18.45
2019-03-06T06:38:00.979Z,16.48
2019-03-06T06:40:30.104Z,15.55
2019-03-06T06:42:59.095Z,13.80
2019-03-06T06:45:28.303Z,15.08
2019-03-06T06:48:07.630Z,14.80
2019-03-06T06:50:36.971Z,14.05
2019-03-06T06:53:42.155Z,15.00
2019-03-06T06:57:39.876Z,15.53
2019-03-06T07:00:18.573Z,17.48
2019-03-06T07:04:07.929Z,14.78
2019-03-06T07:06:49.039Z,16.20
2019-03-06T07:09:54.544Z,14.58
2019-03-06T07:12:42.538Z,14.80
2019-03-06T07:15:38.319Z,18.92
2019-03-06T07:18:13.668Z,15.08
2019-03-06T07:20:47.351Z,16.40
2019-03-06T07:23:23.367Z,16.52
2019-03-06T07:26:12.800Z,15.88
2019-03-06T07:28:47.922Z,15.72
2019-03-06T07:31:21.145Z,17.20
2019-03-06T07:34:57.103Z,18.45
2019-03-06T07:37:35.236Z,20.25
2019-03-06T07:40:11.389Z,21.90
2019-03-06T07:43:18.019Z,24.63
2019-03-06T07:45:52.523Z,31.70
2019-03-06T07:48:27.584Z,34.45
2019-03-06T07:51:04.736Z,35.20
2019-03-06T07:54:49.475Z,33.10
2019-03-06T07:57:27.664Z,28.17
2019-03-06T07:59:57.052Z,27.82
2019-03-06T08:02:31.103Z,26.70
2019-03-06T08:05:00.604Z,20.60
2019-03-06T08:07:29.698Z,20.40
2019-03-06T08:09:58.879Z,18.77
2019-03-06T08:12:36.664Z,17.52
2019-03-06T08:15:12.671Z,16.27
2019-03-06T08:17:46.769Z,17.48
2019-03-06T08:22:26.588Z,17.62
2019-03-06T08:25:00.699Z,19.32
2019-03-06T08:27:30.333Z,18.30
2019-03-06T08:29:59.446Z,17.82
2019-03-06T08:32:31.192Z,20.50
2019-03-06T08:35:00.364Z,18.20
2019-03-06T08:37:29.495Z,19.77
2019-03-06T08:39:58.531Z,18.55
2019-03-06T08:42:27.907Z,19.23
2019-03-06T08:44:57.111Z,19.10
2019-03-06T08:47:31.596Z,22.75
2019-03-06T08:50:05.592Z,22.70
2019-03-06T08:52:40.227Z,64.58
2019-03-06T08:55:16.602Z,20.20
2019-03-06T08:57:51.008Z,18.80
2019-03-06T09:00:30.571Z,18.97
2019-03-06T09:03:06.475Z,18.60
2019-03-06T09:06:10.860Z,17.77
2019-03-06T09:08:45.166Z,17.03
2019-03-06T09:11:20.387Z,16.82
2019-03-06T09:14:52.279Z,17.73
2019-03-06T09:17:27.045Z,16.73
2019-03-06T09:21:04.998Z,18.70
2019-03-06T09:23:47.902Z,18.17
2019-03-06T09:26:35.529Z,18.92
2019-03-06T09:29:11.620Z,17.30
2019-03-06T09:32:48.788Z,16.20
2019-03-06T09:35:28.691Z,17.57
2019-03-06T09:38:10.769Z,17.80
2019-03-06T09:40:41.765Z,17.50
2019-03-06T09:43:16.043Z,16.40
2019-03-06T09:45:57.231Z,17.40
2019-03-06T09:48:30.303Z,17.60
2019-03-06T09:51:09.135Z,17.77
2019-03-06T09:53:42.087Z,17.90
2019-03-06T09:56:18.044Z,18.47
2019-03-06T09:58:55.128Z,17.70
2019-03-06T10:01:29.370Z,18.03
2019-03-06T10:06:09.268Z,18.00
2019-03-06T10:09:17.076Z,17.20
2019-03-06T10:11:51.171Z,18.07
2019-03-06T10:14:55.572Z,18.73
2019-03-06T10:17:30.210Z,16.60
2019-03-06T10:20:02.474Z,15.70
2019-03-06T10:22:31.533Z,16.07
2019-03-06T10:25:00.793Z,16.23
2019-03-06T10:27:29.893Z,15.00
2019-03-06T10:29:59.059Z,12.17
2019-03-06T10:32:28.892Z,11.63
2019-03-06T10:34:57.888Z,8.40
2019-03-06T10:37:27.334Z,9.60
2019-03-06T10:39:56.483Z,9.43
2019-03-06T10:42:25.471Z,6.13
2019-03-06T10:44:54.724Z,5.33
2019-03-06T10:47:23.772Z,5.27
2019-03-06T10:49:53.673Z,4.73
2019-03-06T10:52:22.834Z,4.40
2019-03-06T10:54:52.046Z,4.10
2019-03-06T10:57:21.074Z,3.77
2019-03-06T10:59:50.319Z,4.33
2019-03-06T11:02:19.341Z,4.20
2019-03-06T11:04:59.398Z,3.73
2019-03-06T11:07:28.714Z,3.90
2019-03-06T11:09:58.504Z,3.50
2019-03-06T11:12:27.703Z,3.70
2019-03-06T11:14:56.631Z,2.60
2019-03-06T11:17:26.120Z,3.33
2019-03-06T11:19:55.171Z,3.57
2019-03-06T11:22:24.291Z,3.03
2019-03-06T11:24:53.319Z,3.53
2019-03-06T11:27:22.558Z,3.10
2019-03-06T11:29:52.075Z,2.97
2019-03-06T11:32:21.514Z,3.40
2019-03-06T11:34:50.939Z,2.30
2019-03-06T11:37:20.162Z,2.47
2019-03-06T11:39:49.304Z,2.53
2019-03-06T11:42:18.561Z,2.60
2019-03-06T11:44:47.710Z,3.17
2019-03-06T11:47:16.944Z,3.10
2019-03-06T11:49:46.056Z,2.30
2019-03-06T11:52:15.323Z,2.23
2019-03-06T11:54:44.628Z,3.07
2019-03-06T11:57:13.967Z,3.30
2019-03-06T11:59:43.481Z,2.50
2019-03-06T12:02:12.798Z,3.20
2019-03-06T12:04:41.995Z,4.53
2019-03-06T12:07:11.236Z,6.27
2019-03-06T12:09:40.566Z,4.13
2019-03-06T12:12:10.104Z,4.17
2019-03-06T12:14:39.323Z,5.40
2019-03-06T12:17:08.835Z,3.97
2019-03-06T12:19:37.877Z,3.50
2019-03-06T12:22:07.046Z,4.00
2019-03-06T12:24:36.354Z,3.47
2019-03-06T12:27:05.688Z,3.47
2019-03-06T12:29:34.770Z,4.13
2019-03-06T12:32:04.065Z,4.13
2019-03-06T12:34:33.072Z,3.80
2019-03-06T12:37:02.728Z,4.10
2019-03-06T12:39:32.464Z,3.20
2019-03-06T12:42:02.107Z,3.57
2019-03-06T12:44:31.151Z,3.50
2019-03-06T12:47:00.523Z,3.80
2019-03-06T12:49:30.575Z,3.70
2019-03-06T12:51:59.580Z,2.83
2019-03-06T12:54:28.675Z,3.07
2019-03-06T12:56:58.592Z,3.27
2019-03-06T12:59:27.853Z,3.30
2019-03-06T13:01:57.444Z,3.40
2019-03-06T13:04:26.394Z,3.67
2019-03-06T13:06:55.464Z,3.23
2019-03-06T13:09:24.496Z,3.30
2019-03-06T13:11:53.547Z,2.93
2019-03-06T13:14:22.851Z,3.00
2019-03-06T13:16:52.512Z,2.97
2019-03-06T13:19:21.543Z,2.90
2019-03-06T13:21:50.854Z,2.37
2019-03-06T13:24:19.887Z,3.00
2019-03-06T13:26:49.074Z,2.87
2019-03-06T13:29:18.284Z,3.07
2019-03-06T13:31:47.319Z,2.93
2019-03-06T13:34:52.159Z,2.93
2019-03-06T13:37:20.508Z,2.57
2019-03-06T13:39:50.113Z,2.73
2019-03-06T13:42:19.344Z,3.33
2019-03-06T13:44:48.499Z,2.80
2019-03-06T13:47:17.728Z,3.07
2019-03-06T13:49:47.470Z,2.30
2019-03-06T13:52:17.096Z,3.03
2019-03-06T13:54:46.655Z,3.30
2019-03-06T13:57:16.376Z,3.27
2019-03-06T13:59:45.907Z,4.37
2019-03-06T14:02:14.796Z,3.77
2019-03-06T14:04:44.135Z,2.93
2019-03-06T14:07:13.160Z,3.97
2019-03-06T14:09:42.398Z,3.67
2019-03-06T14:12:11.763Z,4.00
2019-03-06T14:14:40.717Z,3.63
2019-03-06T14:17:10.019Z,3.50
2019-03-06T14:19:39.150Z,4.20
2019-03-06T14:22:08.500Z,3.70
2019-03-06T14:24:37.680Z,3.40
2019-03-06T14:27:07.364Z,3.23
2019-03-06T14:29:36.603Z,3.30
2019-03-06T14:32:14.115Z,3.47
2019-03-06T14:34:36.755Z,2.97
2019-03-06T14:37:06.388Z,3.13
2019-03-06T14:39:35.380Z,2.60
2019-03-06T14:42:05.369Z,3.10
2019-03-06T14:44:34.482Z,3.10
2019-03-06T14:47:03.674Z,2.53
2019-03-06T14:49:33.448Z,2.50
2019-03-06T14:52:07.300Z,2.80
2019-03-06T14:54:31.766Z,2.57
2019-03-06T14:57:01.131Z,2.90
2019-03-06T14:59:30.089Z,2.60
2019-03-06T15:01:59.086Z,2.77
2019-03-06T15:04:28.536Z,2.90
2019-03-06T15:06:57.658Z,3.00
2019-03-06T15:09:27.780Z,3.53
2019-03-06T15:11:57.107Z,3.30
2019-03-06T15:14:35.531Z,3.13
2019-03-06T15:16:55.604Z,2.93
2019-03-06T15:19:24.628Z,2.63
2019-03-06T15:21:53.761Z,3.10
2019-03-06T15:24:22.959Z,3.00
2019-03-06T15:26:52.026Z,3.50
2019-03-06T15:29:21.675Z,3.30
2019-03-06T15:31:51.577Z,3.20
2019-03-06T15:54:26.244Z,5.13
2019-03-06T15:56:55.981Z,4.53
2019-03-06T15:59:25.157Z,4.43
2019-03-06T16:01:54.159Z,4.47
2019-03-06T16:21:08.889Z,44.17
2019-03-06T16:23:38.664Z,16.20
2019-03-06T16:26:07.822Z,7.70
2019-03-06T16:28:37.018Z,7.70
2019-03-06T16:31:06.039Z,7.33
2019-03-06T16:33:35.043Z,7.80
2019-03-06T16:36:04.331Z,7.40
2019-03-06T16:38:33.801Z,7.80
2019-03-06T16:41:03.484Z,7.37
2019-03-06T16:43:32.915Z,7.77
2019-03-06T16:46:02.814Z,8.37
2019-03-06T16:48:31.814Z,8.37
2019-03-06T16:51:00.998Z,8.60
2019-03-06T16:53:30.335Z,9.07
2019-03-06T16:55:59.574Z,12.20
2019-03-06T16:58:28.716Z,10.97
2019-03-06T17:00:58.804Z,9.93
2019-03-06T17:03:28.492Z,9.83
2019-03-06T17:05:57.715Z,7.70
2019-03-06T17:08:27.927Z,8.10
2019-03-06T17:10:57.418Z,8.60
2019-03-06T17:13:27.113Z,8.80
2019-03-06T17:15:57.777Z,9.07
2019-03-06T17:18:27.058Z,10.23
2019-03-06T17:20:56.439Z,11.30
2019-03-06T17:23:25.492Z,11.17
2019-03-06T17:25:54.692Z,14.17
2019-03-06T17:28:23.963Z,17.47
2019-03-06T17:30:53.072Z,32.00
2019-03-06T17:33:22.636Z,59.25
2019-03-06T17:35:51.718Z,48.73
2019-03-06T17:38:20.904Z,48.63
2019-03-06T17:40:49.961Z,36.47
2019-03-06T18:00:04.676Z,15.55
2019-03-06T18:02:34.356Z,15.45
2019-03-06T18:05:03.638Z,16.32
2019-03-06T18:07:33.279Z,15.80
2019-03-06T18:10:02.806Z,15.53
2019-03-06T18:12:32.523Z,15.93
2019-03-06T18:15:01.656Z,16.37
2019-03-06T18:17:30.699Z,15.43
2019-03-06T18:19:59.745Z,15.80
2019-03-06T18:22:28.826Z,15.38
2019-03-06T18:41:44.873Z,16.67
2019-03-06T18:44:13.922Z,17.82
2019-03-06T18:46:43.545Z,18.87
2019-03-06T18:49:12.999Z,18.73
2019-03-06T19:08:31.312Z,14.80
2019-03-06T19:10:56.410Z,25.43
2019-03-06T19:13:25.564Z,27.07
2019-03-06T19:15:54.697Z,16.25
2019-03-06T19:18:24.131Z,13.75
2019-03-06T19:20:53.706Z,14.33
2019-03-06T19:23:22.863Z,15.38
2019-03-06T19:25:52.150Z,14.75
2019-03-06T19:28:21.507Z,15.68
2019-03-06T19:30:50.569Z,15.23
2019-03-06T19:33:19.959Z,14.53
2019-03-06T19:35:49.626Z,15.25
2019-03-06T19:38:18.689Z,16.17
2019-03-06T19:40:48.089Z,15.53
2019-03-06T19:43:17.894Z,14.20
2019-03-06T19:45:47.511Z,14.15
2019-03-06T19:48:16.821Z,12.30
2019-03-06T19:50:45.808Z,11.12
2019-03-06T19:53:14.857Z,9.35
2019-03-06T19:55:44.131Z,7.97
2019-03-06T19:58:13.324Z,7.05
2019-03-06T20:00:42.276Z,8.10
2019-03-06T20:03:11.552Z,7.30
2019-03-06T20:05:41.685Z,7.08
2019-03-06T20:08:11.900Z,7.00
2019-03-06T20:10:41.660Z,7.60
2019-03-06T20:13:11.556Z,6.37
2019-03-06T20:15:40.657Z,7.47
2019-03-06T20:18:09.876Z,7.10
2019-03-06T20:20:38.938Z,7.70
2019-03-06T20:23:08.057Z,7.28
2019-03-06T20:25:37.277Z,7.03
2019-03-06T20:28:07.736Z,7.60
2019-03-06T20:30:36.679Z,7.67
2019-03-06T20:33:05.906Z,7.45
2019-03-06T20:35:35.055Z,7.50
2019-03-06T20:38:04.335Z,7.62
2019-03-06T20:40:33.620Z,9.95
2019-03-06T20:43:02.888Z,30.72
2019-03-06T20:45:32.055Z,11.97
2019-03-06T20:48:01.712Z,8.48
2019-03-06T21:07:16.129Z,9.30
2019-03-06T21:09:45.748Z,9.08
2019-03-06T21:12:15.151Z,9.35
2019-03-06T21:14:44.856Z,9.93
2019-03-06T21:17:15.186Z,9.23
2019-03-06T21:19:44.176Z,11.35
2019-03-06T21:22:13.511Z,11.12
2019-03-06T21:24:42.778Z,20.00
2019-03-06T21:27:11.893Z,23.55
2019-03-06T21:29:41.264Z,18.35
2019-03-06T21:32:10.447Z,27.27
2019-03-06T21:34:39.555Z,26.82
2019-03-06T21:37:08.403Z,22.40
2019-03-06T21:39:37.938Z,28.75
2019-03-06T21:42:07.087Z,27.98
2019-03-06T21:44:36.087Z,32.63
2019-03-06T21:47:05.348Z,27.10
2019-03-06T21:49:34.519Z,16.15
2019-03-06T21:52:03.802Z,16.82
2019-03-06T21:54:32.933Z,20.23
2019-03-06T21:57:01.853Z,43.78
2019-03-06T21:59:31.911Z,17.55
2019-03-06T22:02:00.785Z,15.50
2019-03-06T22:04:29.736Z,14.85
2019-03-06T22:06:58.745Z,15.65
2019-03-06T22:09:27.941Z,14.78
2019-03-06T22:11:57.017Z,15.20
2019-03-06T22:14:26.284Z,15.35
2019-03-06T22:16:55.239Z,16.90
2019-03-06T22:19:24.256Z,17.07
2019-03-06T22:21:53.339Z,17.07
2019-03-06T22:24:22.598Z,18.62
2019-03-06T22:26:51.487Z,15.85
2019-03-06T22:29:20.617Z,18.45
2019-03-06T22:31:49.815Z,18.10
2019-03-06T22:51:04.162Z,12.80
2019-03-06T22:53:34.025Z,15.15
2019-03-06T22:56:03.205Z,16.37
2019-03-06T22:58:32.186Z,18.85
2019-03-06T23:01:25.539Z,19.87
2019-03-06T23:03:55.381Z,19.60
2019-03-06T23:06:25.149Z,19.12
2019-03-06T23:08:54.219Z,18.35
2019-03-06T23:11:23.680Z,18.42
2019-03-06T23:13:52.948Z,18.05
2019-03-06T23:16:23.014Z,16.93
2019-03-06T23:18:52.984Z,17.32
2019-03-06T23:21:22.183Z,16.87
2019-03-06T23:57:22.303Z,16.12
2019-03-06T23:59:51.761Z,15.93
